Wilson Express — 8PXI — position and weather

sailwx.info

Track history (hours):
 
Tides and Currents Weather Stations Pressure Air Temp Water Temp Dewpoint Dewpoint Depression Visibility Wind Speed Wind Dir Waves Ship Positions

Wilson Express

Last reported at 2017-Sep-29 16:06 UTC. Time now 2017-Oct-22 21:21 UTC.
Position N 36°06' E 014°40'.
Warning: this ship's position is 23 days out of date.

Length 131 m; draft 5.5 m.

Type: Cargo ship. MMSI: 314336000.

Date/timePositionNaut miles runAvg speedWind from/ knotsBaromVisibWave heightAir tempDewpointWater temp
2017-Sep-29 16:06N 36°06' E 014°40'1 4.8
2017-Sep-29 15:56N 36°06' E 014°39'0 0.8
2017-Sep-29 15:30N 36°06' E 014°39'0 0.7
2017-Sep-29 15:00N 36°06' E 014°39'0 0.9
2017-Sep-29 14:30N 36°05' E 014°38'1 1.0
2017-Sep-29 14:00N 36°05' E 014°38'1 1.2
2017-Sep-29 13:30N 36°04' E 014°38'1 1.3
2017-Sep-29 12:57N 36°03' E 014°38'2 3.1
2017-Sep-29 12:25N 36°05' E 014°38'2 3.7
2017-Sep-29 12:00N 36°06' E 014°39'2 3.1
2017-Sep-29 11:30N 36°06' E 014°41'2 2.7
2017-Sep-29 10:51N 36°07' E 014°43'1 2.4
2017-Sep-29 10:30N 36°06' E 014°43'2 0.9
2017-Sep-29 08:15N 36°08' E 014°43'1 2.8
2017-Sep-29 07:48N 36°08' E 014°41'1 2.5
2017-Sep-29 07:30N 36°08' E 014°40'1 2.2
2017-Sep-29 07:00N 36°07' E 014°39'1 2.2
2017-Sep-29 06:30N 36°06' E 014°38'1 2.2
2017-Sep-29 06:00N 36°05' E 014°38'0 0.4
2017-Sep-29 05:30N 36°05' E 014°37'2 1.3
2017-Sep-29 03:40N 36°07' E 014°38'0 2.5
2017-Sep-29 03:30N 36°08' E 014°38'2 4.4
2017-Sep-29 03:00N 36°10' E 014°38'3 5.2
2017-Sep-29 02:30N 36°13' E 014°37'3 5.2
2017-Sep-29 02:00N 36°15' E 014°36'3 5.3
2017-Sep-29 01:30N 36°17' E 014°34'3 5.5
2017-Sep-29 01:00N 36°20' E 014°33'3 5.5
2017-Sep-29 00:30N 36°23' E 014°32'3 5.6
2017-Sep-29 00:00N 36°25' E 014°31'3 5.6
2017-Sep-28 23:30N 36°28' E 014°29'3 5.9
2017-Sep-28 23:00N 36°30' E 014°28'3 5.9
2017-Sep-28 22:30N 36°33' E 014°26'3 5.5
2017-Sep-28 22:00N 36°36' E 014°25'3 5.3
2017-Sep-28 21:30N 36°38' E 014°24'3 5.2
2017-Sep-28 21:00N 36°41' E 014°24'3 5.2
2017-Sep-28 20:30N 36°43' E 014°23'3 5.4
2017-Sep-28 20:00N 36°46' E 014°21'3 5.1
2017-Sep-28 19:30N 36°47' E 014°19'3 5.2
2017-Sep-28 19:00N 36°48' E 014°16'2 4.6
2017-Sep-28 18:30N 36°50' E 014°14'2 4.8
2017-Sep-28 18:00N 36°51' E 014°11'2 4.7
2017-Sep-28 17:30N 36°53' E 014°09'2 4.9
2017-Sep-28 17:00N 36°54' E 014°06'3 5.0
2017-Sep-28 16:30N 36°55' E 014°04'2 4.9
2017-Sep-28 16:00N 36°57' E 014°01'2 4.9
2017-Sep-28 15:30N 36°58' E 013°58'3 5.1
2017-Sep-28 15:00N 36°59' E 013°55'3 5.4
2017-Sep-28 14:30N 37°00' E 013°53'3 5.5
2017-Sep-28 14:01N 37°02' E 013°50'3 5.3
2017-Sep-28 13:30N 37°03' E 013°47'3 5.2
2017-Sep-28 13:01N 37°04' E 013°44'3 5.4
2017-Sep-28 12:30N 37°04' E 013°40'  
2017-Sep-25 23:21N 37°35' E 006°04'3 6.1
2017-Sep-25 22:55N 37°35' E 006°00'8 6.0
2017-Sep-25 21:34N 37°35' E 005°50'1 6.0
2017-Sep-25 21:28N 37°35' E 005°49'3 6.2
2017-Sep-25 21:00N 37°35' E 005°46'3 6.2
2017-Sep-25 20:30N 37°35' E 005°42'3 6.4
2017-Sep-25 20:00N 37°35' E 005°38'4 6.4
2017-Sep-25 19:21N 37°35' E 005°33'3 6.2
2017-Sep-25 18:53N 37°35' E 005°29'6 6.2
2017-Sep-25 17:55N 37°35' E 005°21'2 6.0
2017-Sep-25 17:30N 37°35' E 005°18'4 6.1
2017-Sep-25 16:54N 37°35' E 005°14'3 6.5
2017-Sep-25 16:30N 37°36' E 005°10'3 6.5
2017-Sep-25 15:58N 37°36' E 005°06'7 6.4
2017-Sep-25 14:54N 37°37' E 004°57'3 6.3
2017-Sep-25 14:27N 37°36' E 004°54'3 6.3
2017-Sep-25 13:59N 37°36' E 004°50'3 6.3
2017-Sep-25 13:30N 37°35' E 004°47'6 6.2
2017-Sep-25 12:30N 37°35' E 004°39'3 6.1
2017-Sep-25 11:59N 37°35' E 004°35'3 6.0
2017-Sep-25 11:26N 37°35' E 004°31'3 5.5
2017-Sep-25 10:49N 37°35' E 004°26'16 6.1
2017-Sep-25 08:08N 37°34' E 004°06'5 6.2
2017-Sep-25 07:23N 37°34' E 003°60'8 5.5
2017-Sep-25 06:00N 37°34' E 003°50'3 5.6
2017-Sep-25 05:30N 37°34' E 003°47'3 5.6
2017-Sep-25 05:00N 37°34' E 003°43'3 5.5
2017-Sep-25 04:27N 37°34' E 003°39'4 5.5
2017-Sep-25 03:43N 37°34' E 003°34'1 5.4
2017-Sep-25 03:30N 37°34' E 003°33'3 5.4
2017-Sep-25 03:00N 37°34' E 003°29'3 5.4
2017-Sep-25 02:30N 37°34' E 003°26'3 5.3
2017-Sep-25 02:00N 37°34' E 003°23'3 5.3
2017-Sep-25 01:30N 37°34' E 003°19'3 5.3
2017-Sep-25 01:00N 37°34' E 003°16'5 5.3
2017-Sep-25 00:06N 37°34' E 003°10'5 5.1
2017-Sep-24 23:11N 37°33' E 003°04'0 2.3
2017-Sep-24 23:00N 37°32' E 003°04'1 1.3
2017-Sep-24 22:20N 37°32' E 003°03'1 1.9
2017-Sep-24 22:00N 37°31' E 003°02'1 2.2
2017-Sep-24 21:29N 37°32' E 003°01'2 4.9
2017-Sep-24 21:00N 37°32' E 002°58'123 4.9
2017-Sep-23 19:44N 37°29' E 000°23'33 0.8
2017-Sep-22 02:00N 37°20' W 000°17'1 1.0
2017-Sep-22 01:28N 37°20' W 000°16'0 0.9
2017-Sep-22 00:57N 37°20' W 000°16'1 0.9
2017-Sep-21 23:51N 37°20' W 000°14'0 0.9
2017-Sep-21 23:27N 37°20' W 000°14'0 0.9
2017-Sep-21 23:00N 37°20' W 000°14'1 1.0
2017-Sep-21 22:30N 37°20' W 000°13'1 1.2
2017-Sep-21 21:56N 37°20' W 000°12'1 1.3
2017-Sep-21 21:30N 37°19' W 000°12'1 1.4
2017-Sep-21 21:01N 37°19' W 000°11'1 1.5
2017-Sep-21 20:30N 37°19' W 000°10'1 1.6
2017-Sep-21 20:00N 37°19' W 000°09'1 1.6
2017-Sep-21 19:30N 37°19' W 000°08'1 1.6
2017-Sep-21 19:00N 37°19' W 000°07'1 1.6
2017-Sep-21 18:30N 37°19' W 000°06'1 1.6
2017-Sep-21 18:01N 37°19' W 000°05'1 1.6
2017-Sep-21 17:30N 37°19' W 000°04'1 1.8
2017-Sep-21 17:01N 37°18' W 000°03'1 1.8
2017-Sep-21 16:30N 37°18' W 000°01'1 1.8
2017-Sep-21 16:00N 37°18' W 000°00'1 1.8
2017-Sep-21 15:30N 37°18' E 000°01'1 1.7
2017-Sep-21 15:01N 37°18' E 000°02'1 1.8
2017-Sep-21 14:30N 37°18' E 000°03'1 1.8
2017-Sep-21 13:59N 37°18' E 000°04'1 1.8
2017-Sep-21 13:28N 37°18' E 000°05'1 1.8
2017-Sep-21 12:59N 37°18' E 000°07'1 1.8
2017-Sep-21 12:26N 37°18' E 000°08'1 1.8
2017-Sep-21 11:56N 37°18' E 000°09'1 1.8
2017-Sep-21 11:30N 37°18' E 000°10'1 1.7
2017-Sep-21 10:50N 37°18' E 000°11'1 1.5
2017-Sep-21 10:24N 37°18' E 000°12'1 1.5
2017-Sep-21 09:52N 37°18' E 000°13'1 1.4
2017-Sep-21 09:29N 37°18' E 000°14'1 1.3
2017-Sep-21 09:00N 37°19' E 000°15'1 1.2
2017-Sep-21 08:31N 37°19' E 000°15'1 1.3
2017-Sep-21 08:01N 37°18' E 000°16'1 1.3
2017-Sep-21 07:30N 37°18' E 000°17'1 1.2
2017-Sep-21 07:00N 37°18' E 000°18'1 1.2
2017-Sep-21 06:30N 37°18' E 000°18'1 1.2
2017-Sep-21 06:00N 37°18' E 000°19'1 1.3
2017-Sep-21 05:30N 37°18' E 000°20'1 1.3
2017-Sep-21 05:00N 37°18' E 000°21'1 1.3
2017-Sep-21 04:30N 37°17' E 000°21'1 1.4
2017-Sep-21 04:01N 37°17' E 000°22'1 1.5
2017-Sep-21 03:26N 37°17' E 000°23'1 1.5
2017-Sep-21 03:01N 37°17' E 000°24'1 1.7
2017-Sep-21 02:30N 37°16' E 000°25'1 1.7
2017-Sep-21 01:59N 37°16' E 000°26'1 1.7
2017-Sep-21 01:30N 37°16' E 000°27'1 1.8
2017-Sep-21 01:00N 37°15' E 000°28'1 1.8
2017-Sep-21 00:30N 37°15' E 000°29'1 2.0
2017-Sep-21 00:00N 37°15' E 000°30'1 1.9
2017-Sep-20 23:24N 37°14' E 000°31'1 1.4
2017-Sep-20 23:00N 37°14' E 000°32'1 1.8
2017-Sep-20 22:30N 37°14' E 000°33'2 1.7
2017-Sep-20 21:33N 37°13' E 000°35'0 1.6
2017-Sep-20 21:30N 37°13' E 000°35'1 1.6
2017-Sep-20 21:01N 37°13' E 000°36'1 1.6
2017-Sep-20 20:31N 37°12' E 000°37'1 1.6
2017-Sep-20 20:00N 37°12' E 000°38'1 1.6
2017-Sep-20 19:30N 37°12' E 000°39'1 1.5
2017-Sep-20 19:00N 37°11' E 000°40'1 1.4
2017-Sep-20 18:30N 37°11' E 000°40'1 1.3
2017-Sep-20 18:00N 37°11' E 000°41'1 1.3
2017-Sep-20 17:31N 37°10' E 000°42'1 1.3
2017-Sep-20 17:00N 37°10' E 000°43'1 1.4
2017-Sep-20 16:30N 37°10' E 000°43'1 1.4
2017-Sep-20 15:59N 37°09' E 000°44'1 1.4
2017-Sep-20 15:30N 37°09' E 000°45'1 1.5
2017-Sep-20 14:58N 37°08' E 000°45'2 1.5
2017-Sep-20 13:56N 37°07' E 000°47'1 1.4
2017-Sep-20 13:26N 37°07' E 000°47'17 1.1
2017-Sep-19 22:31N 36°53' E 000°59'0 1.1
2017-Sep-19 22:30N 36°53' E 000°59'  
Track history (hours):
 
Tides and Currents Weather Stations Pressure Air Temp Water Temp Dewpoint Dewpoint Depression Visibility Wind Speed Wind Dir Waves Ship Positions

Wilson Express

Last reported at 2017-Sep-29 16:06 UTC. Time now 2017-Oct-22 21:21 UTC.
Position N 36°06' E 014°40'.
Warning: this ship's position is 23 days out of date.

Length 131 m; draft 5.5 m.

Type: Cargo ship. MMSI: 314336000.

Date/timePositionNaut miles runAvg speedWind from/ knotsBaromVisibWave heightAir tempDewpointWater temp
2017-Sep-29 16:06N 36°06' E 014°40'1 4.8
2017-Sep-29 15:56N 36°06' E 014°39'0 0.8
2017-Sep-29 15:30N 36°06' E 014°39'0 0.7
2017-Sep-29 15:00N 36°06' E 014°39'0 0.9
2017-Sep-29 14:30N 36°05' E 014°38'1 1.0
2017-Sep-29 14:00N 36°05' E 014°38'1 1.2
2017-Sep-29 13:30N 36°04' E 014°38'1 1.3
2017-Sep-29 12:57N 36°03' E 014°38'2 3.1
2017-Sep-29 12:25N 36°05' E 014°38'2 3.7
2017-Sep-29 12:00N 36°06' E 014°39'2 3.1
2017-Sep-29 11:30N 36°06' E 014°41'2 2.7
2017-Sep-29 10:51N 36°07' E 014°43'1 2.4
2017-Sep-29 10:30N 36°06' E 014°43'2 0.9
2017-Sep-29 08:15N 36°08' E 014°43'1 2.8
2017-Sep-29 07:48N 36°08' E 014°41'1 2.5
2017-Sep-29 07:30N 36°08' E 014°40'1 2.2
2017-Sep-29 07:00N 36°07' E 014°39'1 2.2
2017-Sep-29 06:30N 36°06' E 014°38'1 2.2
2017-Sep-29 06:00N 36°05' E 014°38'0 0.4
2017-Sep-29 05:30N 36°05' E 014°37'2 1.3
2017-Sep-29 03:40N 36°07' E 014°38'0 2.5
2017-Sep-29 03:30N 36°08' E 014°38'2 4.4
2017-Sep-29 03:00N 36°10' E 014°38'3 5.2
2017-Sep-29 02:30N 36°13' E 014°37'3 5.2
2017-Sep-29 02:00N 36°15' E 014°36'3 5.3
2017-Sep-29 01:30N 36°17' E 014°34'3 5.5
2017-Sep-29 01:00N 36°20' E 014°33'3 5.5
2017-Sep-29 00:30N 36°23' E 014°32'3 5.6
2017-Sep-29 00:00N 36°25' E 014°31'3 5.6
2017-Sep-28 23:30N 36°28' E 014°29'3 5.9
2017-Sep-28 23:00N 36°30' E 014°28'3 5.9
2017-Sep-28 22:30N 36°33' E 014°26'3 5.5
2017-Sep-28 22:00N 36°36' E 014°25'3 5.3
2017-Sep-28 21:30N 36°38' E 014°24'3 5.2
2017-Sep-28 21:00N 36°41' E 014°24'3 5.2
2017-Sep-28 20:30N 36°43' E 014°23'3 5.4
2017-Sep-28 20:00N 36°46' E 014°21'3 5.1
2017-Sep-28 19:30N 36°47' E 014°19'3 5.2
2017-Sep-28 19:00N 36°48' E 014°16'2 4.6
2017-Sep-28 18:30N 36°50' E 014°14'2 4.8
2017-Sep-28 18:00N 36°51' E 014°11'2 4.7
2017-Sep-28 17:30N 36°53' E 014°09'2 4.9
2017-Sep-28 17:00N 36°54' E 014°06'3 5.0
2017-Sep-28 16:30N 36°55' E 014°04'2 4.9
2017-Sep-28 16:00N 36°57' E 014°01'2 4.9
2017-Sep-28 15:30N 36°58' E 013°58'3 5.1
2017-Sep-28 15:00N 36°59' E 013°55'3 5.4
2017-Sep-28 14:30N 37°00' E 013°53'3 5.5
2017-Sep-28 14:01N 37°02' E 013°50'3 5.3
2017-Sep-28 13:30N 37°03' E 013°47'3 5.2
2017-Sep-28 13:01N 37°04' E 013°44'3 5.4
2017-Sep-28 12:30N 37°04' E 013°40'  
2017-Sep-25 23:21N 37°35' E 006°04'3 6.1
2017-Sep-25 22:55N 37°35' E 006°00'8 6.0
2017-Sep-25 21:34N 37°35' E 005°50'1 6.0
2017-Sep-25 21:28N 37°35' E 005°49'3 6.2
2017-Sep-25 21:00N 37°35' E 005°46'3 6.2
2017-Sep-25 20:30N 37°35' E 005°42'3 6.4
2017-Sep-25 20:00N 37°35' E 005°38'4 6.4
2017-Sep-25 19:21N 37°35' E 005°33'3 6.2
2017-Sep-25 18:53N 37°35' E 005°29'6 6.2
2017-Sep-25 17:55N 37°35' E 005°21'2 6.0
2017-Sep-25 17:30N 37°35' E 005°18'4 6.1
2017-Sep-25 16:54N 37°35' E 005°14'3 6.5
2017-Sep-25 16:30N 37°36' E 005°10'3 6.5
2017-Sep-25 15:58N 37°36' E 005°06'7 6.4
2017-Sep-25 14:54N 37°37' E 004°57'3 6.3
2017-Sep-25 14:27N 37°36' E 004°54'3 6.3
2017-Sep-25 13:59N 37°36' E 004°50'3 6.3
2017-Sep-25 13:30N 37°35' E 004°47'6 6.2
2017-Sep-25 12:30N 37°35' E 004°39'3 6.1
2017-Sep-25 11:59N 37°35' E 004°35'3 6.0
2017-Sep-25 11:26N 37°35' E 004°31'3 5.5
2017-Sep-25 10:49N 37°35' E 004°26'16 6.1
2017-Sep-25 08:08N 37°34' E 004°06'5 6.2
2017-Sep-25 07:23N 37°34' E 003°60'8 5.5
2017-Sep-25 06:00N 37°34' E 003°50'3 5.6
2017-Sep-25 05:30N 37°34' E 003°47'3 5.6
2017-Sep-25 05:00N 37°34' E 003°43'3 5.5
2017-Sep-25 04:27N 37°34' E 003°39'4 5.5
2017-Sep-25 03:43N 37°34' E 003°34'1 5.4
2017-Sep-25 03:30N 37°34' E 003°33'3 5.4
2017-Sep-25 03:00N 37°34' E 003°29'3 5.4
2017-Sep-25 02:30N 37°34' E 003°26'3 5.3
2017-Sep-25 02:00N 37°34' E 003°23'3 5.3
2017-Sep-25 01:30N 37°34' E 003°19'3 5.3
2017-Sep-25 01:00N 37°34' E 003°16'5 5.3
2017-Sep-25 00:06N 37°34' E 003°10'5 5.1
2017-Sep-24 23:11N 37°33' E 003°04'0 2.3
2017-Sep-24 23:00N 37°32' E 003°04'1 1.3
2017-Sep-24 22:20N 37°32' E 003°03'1 1.9
2017-Sep-24 22:00N 37°31' E 003°02'1 2.2
2017-Sep-24 21:29N 37°32' E 003°01'2 4.9
2017-Sep-24 21:00N 37°32' E 002°58'123 4.9
2017-Sep-23 19:44N 37°29' E 000°23'33 0.8
2017-Sep-22 02:00N 37°20' W 000°17'1 1.0
2017-Sep-22 01:28N 37°20' W 000°16'0 0.9
2017-Sep-22 00:57N 37°20' W 000°16'1 0.9
2017-Sep-21 23:51N 37°20' W 000°14'0 0.9
2017-Sep-21 23:27N 37°20' W 000°14'0 0.9
2017-Sep-21 23:00N 37°20' W 000°14'1 1.0
2017-Sep-21 22:30N 37°20' W 000°13'1 1.2
2017-Sep-21 21:56N 37°20' W 000°12'1 1.3
2017-Sep-21 21:30N 37°19' W 000°12'1 1.4
2017-Sep-21 21:01N 37°19' W 000°11'1 1.5
2017-Sep-21 20:30N 37°19' W 000°10'1 1.6
2017-Sep-21 20:00N 37°19' W 000°09'1 1.6
2017-Sep-21 19:30N 37°19' W 000°08'1 1.6
2017-Sep-21 19:00N 37°19' W 000°07'1 1.6
2017-Sep-21 18:30N 37°19' W 000°06'1 1.6
2017-Sep-21 18:01N 37°19' W 000°05'1 1.6
2017-Sep-21 17:30N 37°19' W 000°04'1 1.8
2017-Sep-21 17:01N 37°18' W 000°03'1 1.8
2017-Sep-21 16:30N 37°18' W 000°01'1 1.8
2017-Sep-21 16:00N 37°18' W 000°00'1 1.8
2017-Sep-21 15:30N 37°18' E 000°01'1 1.7
2017-Sep-21 15:01N 37°18' E 000°02'1 1.8
2017-Sep-21 14:30N 37°18' E 000°03'1 1.8
2017-Sep-21 13:59N 37°18' E 000°04'1 1.8
2017-Sep-21 13:28N 37°18' E 000°05'1 1.8
2017-Sep-21 12:59N 37°18' E 000°07'1 1.8
2017-Sep-21 12:26N 37°18' E 000°08'1 1.8
2017-Sep-21 11:56N 37°18' E 000°09'1 1.8
2017-Sep-21 11:30N 37°18' E 000°10'1 1.7
2017-Sep-21 10:50N 37°18' E 000°11'1 1.5
2017-Sep-21 10:24N 37°18' E 000°12'1 1.5
2017-Sep-21 09:52N 37°18' E 000°13'1 1.4
2017-Sep-21 09:29N 37°18' E 000°14'1 1.3
2017-Sep-21 09:00N 37°19' E 000°15'1 1.2
2017-Sep-21 08:31N 37°19' E 000°15'1 1.3
2017-Sep-21 08:01N 37°18' E 000°16'1 1.3
2017-Sep-21 07:30N 37°18' E 000°17'1 1.2
2017-Sep-21 07:00N 37°18' E 000°18'1 1.2
2017-Sep-21 06:30N 37°18' E 000°18'1 1.2
2017-Sep-21 06:00N 37°18' E 000°19'1 1.3
2017-Sep-21 05:30N 37°18' E 000°20'1 1.3
2017-Sep-21 05:00N 37°18' E 000°21'1 1.3
2017-Sep-21 04:30N 37°17' E 000°21'1 1.4
2017-Sep-21 04:01N 37°17' E 000°22'1 1.5
2017-Sep-21 03:26N 37°17' E 000°23'1 1.5
2017-Sep-21 03:01N 37°17' E 000°24'1 1.7
2017-Sep-21 02:30N 37°16' E 000°25'1 1.7
2017-Sep-21 01:59N 37°16' E 000°26'1 1.7
2017-Sep-21 01:30N 37°16' E 000°27'1 1.8
2017-Sep-21 01:00N 37°15' E 000°28'1 1.8
2017-Sep-21 00:30N 37°15' E 000°29'1 2.0
2017-Sep-21 00:00N 37°15' E 000°30'1 1.9
2017-Sep-20 23:24N 37°14' E 000°31'1 1.4
2017-Sep-20 23:00N 37°14' E 000°32'1 1.8
2017-Sep-20 22:30N 37°14' E 000°33'2 1.7
2017-Sep-20 21:33N 37°13' E 000°35'0 1.6
2017-Sep-20 21:30N 37°13' E 000°35'1 1.6
2017-Sep-20 21:01N 37°13' E 000°36'1 1.6
2017-Sep-20 20:31N 37°12' E 000°37'1 1.6
2017-Sep-20 20:00N 37°12' E 000°38'1 1.6
2017-Sep-20 19:30N 37°12' E 000°39'1 1.5
2017-Sep-20 19:00N 37°11' E 000°40'1 1.4
2017-Sep-20 18:30N 37°11' E 000°40'1 1.3
2017-Sep-20 18:00N 37°11' E 000°41'1 1.3
2017-Sep-20 17:31N 37°10' E 000°42'1 1.3
2017-Sep-20 17:00N 37°10' E 000°43'1 1.4
2017-Sep-20 16:30N 37°10' E 000°43'1 1.4
2017-Sep-20 15:59N 37°09' E 000°44'1 1.4
2017-Sep-20 15:30N 37°09' E 000°45'1 1.5
2017-Sep-20 14:58N 37°08' E 000°45'2 1.5
2017-Sep-20 13:56N 37°07' E 000°47'1 1.4
2017-Sep-20 13:26N 37°07' E 000°47'17 1.1
2017-Sep-19 22:31N 36°53' E 000°59'0 1.1
2017-Sep-19 22:30N 36°53' E 000°59'  

Dump ship's entire track history